sensor_id;sensor_type;location;lat;lon;timestamp;P1;durP1;ratioP1;P2;durP2;ratioP2
54855;SDS011;40748;53.168;5.800;2023-03-01T00:02:26;0.40;;;0.10;;
54855;SDS011;40748;53.168;5.800;2023-03-01T00:04:56;0.40;;;0.10;;
54855;SDS011;40748;53.168;5.800;2023-03-01T00:07:26;0.40;;;0.10;;
54855;SDS011;40748;53.168;5.800;2023-03-01T00:09:56;0.40;;;0.10;;
54855;SDS011;40748;53.168;5.800;2023-03-01T00:12:26;0.40;;;0.10;;
54855;SDS011;40748;53.168;5.800;2023-03-01T00:14:56;0.40;;;0.10;;
54855;SDS011;40748;53.168;5.800;2023-03-01T00:17:27;0.40;;;0.10;;
54855;SDS011;40748;53.168;5.800;2023-03-01T00:19:56;0.40;;;0.10;;
54855;SDS011;40748;53.168;5.800;2023-03-01T00:22:27;0.40;;;0.10;;
54855;SDS011;40748;53.168;5.800;2023-03-01T00:24:56;0.40;;;0.10;;
54855;SDS011;40748;53.168;5.800;2023-03-01T00:27:26;0.40;;;0.10;;
54855;SDS011;40748;53.168;5.800;2023-03-01T00:29:56;0.40;;;0.10;;
54855;SDS011;40748;53.168;5.800;2023-03-01T00:32:26;0.40;;;0.10;;
54855;SDS011;40748;53.168;5.800;2023-03-01T00:34:56;0.40;;;0.10;;
54855;SDS011;40748;53.168;5.800;2023-03-01T00:37:26;0.40;;;0.10;;
54855;SDS011;40748;53.168;5.800;2023-03-01T00:39:56;0.40;;;0.10;;
54855;SDS011;40748;53.168;5.800;2023-03-01T00:42:26;0.40;;;0.10;;
54855;SDS011;40748;53.168;5.800;2023-03-01T00:44:56;0.40;;;0.10;;
54855;SDS011;40748;53.168;5.800;2023-03-01T00:47:28;0.40;;;0.10;;
54855;SDS011;40748;53.168;5.800;2023-03-01T00:49:56;0.40;;;0.10;;
54855;SDS011;40748;53.168;5.800;2023-03-01T00:52:26;0.40;;;0.10;;
54855;SDS011;40748;53.168;5.800;2023-03-01T00:54:56;0.40;;;0.10;;
54855;SDS011;40748;53.168;5.800;2023-03-01T00:57:26;0.40;;;0.10;;
54855;SDS011;40748;53.168;5.800;2023-03-01T00:59:56;0.40;;;0.10;;
54855;SDS011;40748;53.168;5.800;2023-03-01T01:02:26;0.40;;;0.10;;
54855;SDS011;40748;53.168;5.800;2023-03-01T01:04:56;0.40;;;0.10;;
54855;SDS011;40748;53.168;5.800;2023-03-01T01:07:27;0.40;;;0.10;;
54855;SDS011;40748;53.168;5.800;2023-03-01T01:09:56;0.40;;;0.10;;
54855;SDS011;40748;53.168;5.800;2023-03-01T01:12:26;0.40;;;0.10;;
54855;SDS011;40748;53.168;5.800;2023-03-01T01:14:56;0.40;;;0.10;;
54855;SDS011;40748;53.168;5.800;2023-03-01T01:17:26;0.40;;;0.10;;
54855;SDS011;40748;53.168;5.800;2023-03-01T01:19:56;0.40;;;0.10;;
54855;SDS011;40748;53.168;5.800;2023-03-01T01:22:26;0.40;;;0.10;;
54855;SDS011;40748;53.168;5.800;2023-03-01T01:24:56;0.40;;;0.10;;
54855;SDS011;40748;53.168;5.800;2023-03-01T01:29:56;0.40;;;0.10;;
54855;SDS011;40748;53.168;5.800;2023-03-01T01:32:26;0.40;;;0.10;;
54855;SDS011;40748;53.168;5.800;2023-03-01T01:34:56;0.40;;;0.10;;
54855;SDS011;40748;53.168;5.800;2023-03-01T01:37:26;0.40;;;0.10;;
54855;SDS011;40748;53.168;5.800;2023-03-01T01:39:56;0.40;;;0.10;;
54855;SDS011;40748;53.168;5.800;2023-03-01T01:42:27;0.40;;;0.10;;
54855;SDS011;40748;53.168;5.800;2023-03-01T01:49:57;0.40;;;0.10;;
54855;SDS011;40748;53.168;5.800;2023-03-01T01:55:00;0.40;;;0.10;;
54855;SDS011;40748;53.168;5.800;2023-03-01T01:57:30;0.40;;;0.10;;
54855;SDS011;40748;53.168;5.800;2023-03-01T01:59:59;0.40;;;0.10;;
54855;SDS011;40748;53.168;5.800;2023-03-01T02:02:26;0.40;;;0.10;;
54855;SDS011;40748;53.168;5.800;2023-03-01T02:05:03;0.40;;;0.10;;
54855;SDS011;40748;53.168;5.800;2023-03-01T02:07:27;0.40;;;0.10;;
54855;SDS011;40748;53.168;5.800;2023-03-01T02:09:56;0.30;;;0.20;;
54855;SDS011;40748;53.168;5.800;2023-03-01T02:12:27;0.30;;;0.20;;
54855;SDS011;40748;53.168;5.800;2023-03-01T02:15:00;0.30;;;0.20;;
54855;SDS011;40748;53.168;5.800;2023-03-01T02:17:26;0.30;;;0.20;;
54855;SDS011;40748;53.168;5.800;2023-03-01T02:20:07;0.10;;;0.00;;
54855;SDS011;40748;53.168;5.800;2023-03-01T02:22:29;0.10;;;0.00;;
54855;SDS011;40748;53.168;5.800;2023-03-01T02:25:07;0.10;;;0.00;;
54855;SDS011;40748;53.168;5.800;2023-03-01T02:29:56;0.30;;;0.10;;
54855;SDS011;40748;53.168;5.800;2023-03-01T02:32:26;0.30;;;0.10;;
54855;SDS011;40748;53.168;5.800;2023-03-01T02:34:56;0.30;;;0.10;;
54855;SDS011;40748;53.168;5.800;2023-03-01T02:37:27;0.30;;;0.10;;
54855;SDS011;40748;53.168;5.800;2023-03-01T02:39:59;0.10;;;0.00;;
54855;SDS011;40748;53.168;5.800;2023-03-01T02:42:30;0.10;;;0.00;;
54855;SDS011;40748;53.168;5.800;2023-03-01T02:44:56;0.10;;;0.00;;
54855;SDS011;40748;53.168;5.800;2023-03-01T02:47:26;0.10;;;0.00;;
54855;SDS011;40748;53.168;5.800;2023-03-01T02:49:56;0.30;;;0.10;;
54855;SDS011;40748;53.168;5.800;2023-03-01T02:52:33;0.30;;;0.10;;
54855;SDS011;40748;53.168;5.800;2023-03-01T02:54:59;0.30;;;0.10;;
54855;SDS011;40748;53.168;5.800;2023-03-01T02:59:57;0.10;;;0.00;;
54855;SDS011;40748;53.168;5.800;2023-03-01T03:02:29;0.10;;;0.00;;
54855;SDS011;40748;53.168;5.800;2023-03-01T03:04:56;0.10;;;0.00;;
54855;SDS011;40748;53.168;5.800;2023-03-01T03:09:56;0.10;;;0.00;;
54855;SDS011;40748;53.168;5.800;2023-03-01T03:12:26;0.10;;;0.00;;
54855;SDS011;40748;53.168;5.800;2023-03-01T03:14:56;0.10;;;0.00;;
54855;SDS011;40748;53.168;5.800;2023-03-01T03:17:26;0.10;;;0.00;;
54855;SDS011;40748;53.168;5.800;2023-03-01T09:34:56;0.40;;;0.30;;
54855;SDS011;40748;53.168;5.800;2023-03-01T09:37:27;0.10;;;0.00;;
54855;SDS011;40748;53.168;5.800;2023-03-01T09:39:56;0.10;;;0.00;;
54855;SDS011;40748;53.168;5.800;2023-03-01T10:30:05;0.80;;;0.30;;
54855;SDS011;40748;53.168;5.800;2023-03-01T10:32:26;0.80;;;0.30;;
54855;SDS011;40748;53.168;5.800;2023-03-01T10:34:56;0.80;;;0.30;;
54855;SDS011;40748;53.168;5.800;2023-03-01T10:54:58;0.60;;;0.30;;
54855;SDS011;40748;53.168;5.800;2023-03-01T10:57:30;0.40;;;0.40;;
54855;SDS011;40748;53.168;5.800;2023-03-01T11:00:15;0.40;;;0.40;;
54855;SDS011;40748;53.168;5.800;2023-03-01T11:02:28;0.40;;;0.40;;
54855;SDS011;40748;53.168;5.800;2023-03-01T11:04:59;0.40;;;0.40;;
54855;SDS011;40748;53.168;5.800;2023-03-01T11:07:27;0.40;;;0.10;;
54855;SDS011;40748;53.168;5.800;2023-03-01T11:09:56;0.40;;;0.10;;
54855;SDS011;40748;53.168;5.800;2023-03-01T11:12:26;0.40;;;0.10;;
54855;SDS011;40748;53.168;5.800;2023-03-01T11:14:57;0.40;;;0.10;;
54855;SDS011;40748;53.168;5.800;2023-03-01T11:17:28;1.10;;;0.50;;
54855;SDS011;40748;53.168;5.800;2023-03-01T11:20:00;1.10;;;0.50;;
54855;SDS011;40748;53.168;5.800;2023-03-01T11:22:27;1.10;;;0.50;;
54855;SDS011;40748;53.168;5.800;2023-03-01T11:24:56;1.10;;;0.50;;
54855;SDS011;40748;53.168;5.800;2023-03-01T11:27:29;0.60;;;0.40;;
54855;SDS011;40748;53.168;5.800;2023-03-01T11:30:00;0.60;;;0.40;;
54855;SDS011;40748;53.168;5.800;2023-03-01T11:32:31;0.60;;;0.40;;
54855;SDS011;40748;53.168;5.800;2023-03-01T11:35:00;0.60;;;0.40;;
54855;SDS011;40748;53.168;5.800;2023-03-01T11:37:32;0.80;;;0.30;;
54855;SDS011;40748;53.168;5.800;2023-03-01T11:40:02;0.80;;;0.30;;
54855;SDS011;40748;53.168;5.800;2023-03-01T11:42:34;0.80;;;0.30;;
54855;SDS011;40748;53.168;5.800;2023-03-01T11:44:59;0.80;;;0.30;;
54855;SDS011;40748;53.168;5.800;2023-03-01T11:47:38;1.50;;;0.70;;
54855;SDS011;40748;53.168;5.800;2023-03-01T11:50:08;1.50;;;0.70;;
54855;SDS011;40748;53.168;5.800;2023-03-01T11:52:36;1.50;;;0.70;;
54855;SDS011;40748;53.168;5.800;2023-03-01T11:55:12;1.50;;;0.70;;
54855;SDS011;40748;53.168;5.800;2023-03-01T11:57:48;0.20;;;0.00;;
54855;SDS011;40748;53.168;5.800;2023-03-01T12:00:06;0.20;;;0.00;;
54855;SDS011;40748;53.168;5.800;2023-03-01T12:02:48;0.20;;;0.00;;
54855;SDS011;40748;53.168;5.800;2023-03-01T12:05:11;0.20;;;0.00;;
54855;SDS011;40748;53.168;5.800;2023-03-01T12:07:35;3.70;;;0.80;;
54855;SDS011;40748;53.168;5.800;2023-03-01T12:10:17;3.70;;;0.80;;
54855;SDS011;40748;53.168;5.800;2023-03-01T12:12:32;3.70;;;0.80;;
54855;SDS011;40748;53.168;5.800;2023-03-01T12:15:09;3.70;;;0.80;;
54855;SDS011;40748;53.168;5.800;2023-03-01T12:17:41;0.90;;;0.40;;
54855;SDS011;40748;53.168;5.800;2023-03-01T12:20:10;0.90;;;0.40;;
54855;SDS011;40748;53.168;5.800;2023-03-01T12:22:31;0.90;;;0.40;;
54855;SDS011;40748;53.168;5.800;2023-03-01T12:25:11;0.90;;;0.40;;
54855;SDS011;40748;53.168;5.800;2023-03-01T12:27:40;1.60;;;0.50;;
54855;SDS011;40748;53.168;5.800;2023-03-01T12:30:09;1.60;;;0.50;;
54855;SDS011;40748;53.168;5.800;2023-03-01T12:32:39;1.60;;;0.50;;
54855;SDS011;40748;53.168;5.800;2023-03-01T12:35:10;1.60;;;0.50;;
54855;SDS011;40748;53.168;5.800;2023-03-01T12:37:36;1.80;;;0.60;;
54855;SDS011;40748;53.168;5.800;2023-03-01T12:40:11;1.80;;;0.60;;
54855;SDS011;40748;53.168;5.800;2023-03-01T12:42:31;1.80;;;0.60;;
54855;SDS011;40748;53.168;5.800;2023-03-01T12:45:14;1.80;;;0.60;;
54855;SDS011;40748;53.168;5.800;2023-03-01T12:47:41;0.60;;;0.30;;
54855;SDS011;40748;53.168;5.800;2023-03-01T12:49:59;0.60;;;0.30;;
54855;SDS011;40748;53.168;5.800;2023-03-01T12:52:35;0.60;;;0.30;;
54855;SDS011;40748;53.168;5.800;2023-03-01T12:54:57;0.60;;;0.30;;
54855;SDS011;40748;53.168;5.800;2023-03-01T12:57:30;0.90;;;0.20;;
54855;SDS011;40748;53.168;5.800;2023-03-01T13:00:06;0.90;;;0.20;;
54855;SDS011;40748;53.168;5.800;2023-03-01T13:05:10;0.90;;;0.20;;
54855;SDS011;40748;53.168;5.800;2023-03-01T13:07:30;1.50;;;0.50;;
54855;SDS011;40748;53.168;5.800;2023-03-01T13:10:06;1.50;;;0.50;;
54855;SDS011;40748;53.168;5.800;2023-03-01T13:14:56;1.50;;;0.50;;
54855;SDS011;40748;53.168;5.800;2023-03-01T13:17:33;0.50;;;0.40;;
54855;SDS011;40748;53.168;5.800;2023-03-01T13:19:57;0.50;;;0.40;;
54855;SDS011;40748;53.168;5.800;2023-03-01T13:22:29;0.50;;;0.40;;
54855;SDS011;40748;53.168;5.800;2023-03-01T13:25:02;0.50;;;0.40;;
54855;SDS011;40748;53.168;5.800;2023-03-01T13:27:26;0.40;;;0.20;;
54855;SDS011;40748;53.168;5.800;2023-03-01T13:29:58;0.40;;;0.20;;
54855;SDS011;40748;53.168;5.800;2023-03-01T13:32:28;0.40;;;0.20;;
54855;SDS011;40748;53.168;5.800;2023-03-01T14:07:28;0.60;;;0.30;;
54855;SDS011;40748;53.168;5.800;2023-03-01T14:09:59;0.60;;;0.30;;
54855;SDS011;40748;53.168;5.800;2023-03-01T14:12:39;0.60;;;0.30;;
54855;SDS011;40748;53.168;5.800;2023-03-01T14:15:01;0.60;;;0.30;;
54855;SDS011;40748;53.168;5.800;2023-03-01T14:17:42;1.90;;;0.60;;
54855;SDS011;40748;53.168;5.800;2023-03-01T14:19:58;1.90;;;0.60;;
54855;SDS011;40748;53.168;5.800;2023-03-01T14:34:58;0.30;;;0.20;;
54855;SDS011;40748;53.168;5.800;2023-03-01T14:37:29;2.40;;;0.30;;
54855;SDS011;40748;53.168;5.800;2023-03-01T14:39:58;2.40;;;0.30;;
54855;SDS011;40748;53.168;5.800;2023-03-01T15:04:59;1.00;;;0.60;;
54855;SDS011;40748;53.168;5.800;2023-03-01T15:07:29;3.70;;;0.90;;
54855;SDS011;40748;53.168;5.800;2023-03-01T15:09:57;3.70;;;0.90;;
54855;SDS011;40748;53.168;5.800;2023-03-01T15:12:37;3.70;;;0.90;;
54855;SDS011;40748;53.168;5.800;2023-03-01T15:14:57;3.70;;;0.90;;
54855;SDS011;40748;53.168;5.800;2023-03-01T15:24:57;0.60;;;0.40;;
54855;SDS011;40748;53.168;5.800;2023-03-01T15:27:27;0.80;;;0.20;;
54855;SDS011;40748;53.168;5.800;2023-03-01T15:29:59;0.80;;;0.20;;
54855;SDS011;40748;53.168;5.800;2023-03-01T15:32:29;0.80;;;0.20;;
